createdAt,value
2019-01-18T00:00:57.227Z,13.70
2019-01-18T00:01:57.226Z,13.30
2019-01-18T00:03:04.836Z,10.50
2019-01-18T00:03:57.216Z,12.70
2019-01-18T00:05:04.944Z,9.80
2019-01-18T00:05:57.194Z,10.30
2019-01-18T00:07:04.757Z,12.50
2019-01-18T00:07:57.180Z,11.10
2019-01-18T00:10:07.986Z,10.80
2019-01-18T00:11:15.529Z,12.20
2019-01-18T00:12:07.880Z,8.50
2019-01-18T00:14:17.798Z,11.50
2019-01-18T00:15:17.705Z,10.00
2019-01-18T00:16:25.183Z,9.40
2019-01-18T00:17:17.619Z,10.40
2019-01-18T00:18:25.344Z,11.10
2019-01-18T00:19:17.589Z,13.90
2019-01-18T00:20:25.212Z,10.70
2019-01-18T00:21:17.583Z,9.80
2019-01-18T00:22:26.524Z,13.00
2019-01-18T00:23:17.561Z,11.70
2019-01-18T00:25:27.335Z,11.20
2019-01-18T00:26:37.156Z,10.80
2019-01-18T00:27:27.270Z,9.90
2019-01-18T00:28:34.825Z,13.40
2019-01-18T00:29:29.684Z,10.40
2019-01-18T00:30:34.814Z,12.10
2019-01-18T00:31:27.249Z,11.20
2019-01-18T00:32:34.762Z,10.50
2019-01-18T00:33:27.209Z,13.80
2019-01-18T00:34:34.768Z,12.20
2019-01-18T00:35:27.202Z,12.20
2019-01-18T00:36:34.777Z,12.90
2019-01-18T00:37:27.176Z,13.40
2019-01-18T00:38:34.796Z,12.80
2019-01-18T00:39:27.164Z,12.60
2019-01-18T00:40:34.725Z,12.70
2019-01-18T00:41:27.117Z,13.60
2019-01-18T00:42:34.673Z,15.10
2019-01-18T00:43:27.066Z,13.00
2019-01-18T00:44:34.641Z,14.50
2019-01-18T00:45:27.073Z,14.70
2019-01-18T00:46:27.026Z,14.00
2019-01-18T00:47:27.065Z,14.70
2019-01-18T00:48:27.048Z,12.20
2019-01-18T00:49:27.000Z,15.70
2019-01-18T00:50:27.017Z,14.10
2019-01-18T00:51:26.978Z,13.40
2019-01-18T00:52:26.993Z,13.10
2019-01-18T00:53:27.013Z,18.20
2019-01-18T00:54:26.953Z,12.90
2019-01-18T00:55:26.980Z,11.80
2019-01-18T00:56:26.963Z,13.10
2019-01-18T00:57:26.939Z,11.10
2019-01-18T00:58:26.968Z,11.60
2019-01-18T00:59:26.911Z,13.10
2019-01-18T01:00:26.931Z,13.30
2019-01-18T01:01:26.875Z,11.40
2019-01-18T01:02:26.891Z,12.70
2019-01-18T01:03:26.899Z,15.20
2019-01-18T01:04:26.900Z,13.20
2019-01-18T01:05:26.896Z,11.80
2019-01-18T01:06:26.824Z,19.00
2019-01-18T01:07:26.832Z,14.50
2019-01-18T01:08:26.834Z,13.90
2019-01-18T01:09:26.826Z,11.60
2019-01-18T01:10:26.801Z,14.80
2019-01-18T01:11:26.836Z,14.20
2019-01-18T01:12:26.877Z,19.60
2019-01-18T01:13:26.765Z,14.40
2019-01-18T01:14:26.731Z,13.20
2019-01-18T01:15:26.716Z,14.30
2019-01-18T01:16:26.729Z,16.60
2019-01-18T01:17:26.715Z,16.10
2019-01-18T01:18:41.213Z,14.30
2019-01-18T01:19:26.682Z,21.10
2019-01-18T01:20:26.670Z,14.20
2019-01-18T01:21:26.706Z,17.10
2019-01-18T01:22:26.650Z,19.10
2019-01-18T01:24:35.697Z,16.00
2019-01-18T01:25:36.080Z,17.50
2019-01-18T01:26:35.455Z,17.50
2019-01-18T01:27:35.388Z,16.80
2019-01-18T01:28:35.406Z,19.30
2019-01-18T01:29:35.381Z,19.10
2019-01-18T01:30:35.359Z,21.00
2019-01-18T01:31:35.379Z,15.50
2019-01-18T01:32:35.393Z,18.80
2019-01-18T01:33:35.346Z,21.70
2019-01-18T01:34:35.378Z,18.60
2019-01-18T01:35:35.313Z,18.70
2019-01-18T01:36:35.292Z,22.30
2019-01-18T01:37:35.337Z,24.40
2019-01-18T01:38:35.274Z,20.80
2019-01-18T01:39:35.258Z,25.40
2019-01-18T01:40:35.253Z,21.40
2019-01-18T01:41:35.243Z,20.20
2019-01-18T01:42:35.247Z,20.10
2019-01-18T01:43:35.219Z,24.10
2019-01-18T01:44:35.231Z,21.20
2019-01-18T01:45:35.198Z,24.30
2019-01-18T01:46:35.190Z,21.60
2019-01-18T01:47:35.224Z,21.40
2019-01-18T01:48:35.172Z,22.60
2019-01-18T01:49:35.158Z,21.00
2019-01-18T01:50:35.152Z,23.30
2019-01-18T01:51:35.147Z,22.10
2019-01-18T01:52:35.129Z,24.30
2019-01-18T01:53:35.171Z,22.00
2019-01-18T01:54:35.110Z,23.30
2019-01-18T01:55:35.101Z,20.20
2019-01-18T01:56:35.090Z,21.90
2019-01-18T01:57:35.077Z,22.40
2019-01-18T01:58:35.092Z,21.10
2019-01-18T01:59:35.055Z,21.70
2019-01-18T02:00:35.045Z,30.30
2019-01-18T02:01:35.038Z,22.50
2019-01-18T02:02:35.047Z,22.30
2019-01-18T02:03:35.041Z,22.30
2019-01-18T02:04:35.019Z,21.30
2019-01-18T02:05:34.995Z,20.40
2019-01-18T02:06:34.987Z,19.10
2019-01-18T02:07:34.977Z,26.60
2019-01-18T02:08:34.984Z,21.40
2019-01-18T02:09:34.960Z,20.90
2019-01-18T02:10:34.948Z,26.00
2019-01-18T02:11:34.964Z,20.70
2019-01-18T02:12:34.927Z,22.60
2019-01-18T02:13:34.932Z,23.80
2019-01-18T02:14:34.903Z,20.80
2019-01-18T02:15:34.895Z,26.30
2019-01-18T02:16:34.886Z,21.90
2019-01-18T02:17:34.871Z,22.30
2019-01-18T02:18:34.889Z,22.70
2019-01-18T02:19:34.856Z,21.70
2019-01-18T02:20:34.849Z,20.10
2019-01-18T02:21:34.864Z,20.20
2019-01-18T02:22:34.822Z,22.40
2019-01-18T02:23:34.812Z,23.50
2019-01-18T02:24:34.826Z,21.90
2019-01-18T02:25:34.803Z,22.50
2019-01-18T02:26:34.784Z,20.60
2019-01-18T02:27:34.777Z,23.20
2019-01-18T02:28:34.763Z,21.90
2019-01-18T02:29:34.799Z,21.50
2019-01-18T02:30:34.758Z,22.90
2019-01-18T02:31:34.733Z,26.40
2019-01-18T02:32:34.720Z,23.30
2019-01-18T02:33:34.712Z,22.70
2019-01-18T02:34:34.754Z,19.10
2019-01-18T02:35:34.712Z,23.20
2019-01-18T02:36:34.683Z,20.00
2019-01-18T02:37:34.666Z,21.00
2019-01-18T02:38:34.657Z,25.00
2019-01-18T02:39:34.664Z,24.70
2019-01-18T02:40:34.678Z,24.00
2019-01-18T02:41:34.625Z,24.30
2019-01-18T02:42:34.626Z,24.60
2019-01-18T02:43:34.611Z,22.70
2019-01-18T02:44:34.673Z,25.00
2019-01-18T02:45:34.617Z,25.60
2019-01-18T02:46:34.668Z,27.00
2019-01-18T02:47:34.589Z,23.30
2019-01-18T02:48:34.573Z,26.80
2019-01-18T02:49:34.589Z,24.80
2019-01-18T02:50:34.566Z,23.70
2019-01-18T02:51:34.542Z,22.50
2019-01-18T02:52:34.518Z,25.80
2019-01-18T02:53:34.510Z,28.10
2019-01-18T02:54:34.626Z,22.70
2019-01-18T02:55:34.610Z,24.20
2019-01-18T02:56:34.534Z,24.20
2019-01-18T02:57:34.472Z,22.30
2019-01-18T02:58:34.467Z,25.80
2019-01-18T02:59:34.456Z,22.90
2019-01-18T03:00:34.480Z,23.00
2019-01-18T03:01:34.463Z,25.80
2019-01-18T03:02:34.414Z,22.50
2019-01-18T03:03:34.409Z,27.20
2019-01-18T03:04:34.400Z,27.40
2019-01-18T03:05:34.383Z,26.50
2019-01-18T03:06:34.398Z,24.90
2019-01-18T03:07:34.374Z,25.90
2019-01-18T03:08:34.353Z,28.00
2019-01-18T03:09:34.344Z,25.50
2019-01-18T03:10:34.335Z,29.10
2019-01-18T03:11:34.408Z,23.20
2019-01-18T03:12:34.314Z,24.60
2019-01-18T03:13:34.302Z,28.20
2019-01-18T03:14:34.307Z,24.00
2019-01-18T03:15:34.319Z,24.50
2019-01-18T03:16:34.262Z,22.40
2019-01-18T03:17:34.296Z,24.70
2019-01-18T03:18:34.248Z,23.10
2019-01-18T03:19:34.243Z,26.00
2019-01-18T03:20:34.228Z,22.60
2019-01-18T03:21:34.273Z,28.70
2019-01-18T03:22:34.231Z,25.60
2019-01-18T03:23:34.211Z,26.00
2019-01-18T03:24:34.185Z,29.00
2019-01-18T03:25:34.178Z,27.00
2019-01-18T03:26:34.168Z,30.50
2019-01-18T03:27:34.198Z,28.30
2019-01-18T03:28:34.151Z,32.40
2019-01-18T03:29:34.139Z,29.10
2019-01-18T03:30:34.125Z,28.50
2019-01-18T03:31:34.132Z,27.10
2019-01-18T03:32:34.106Z,26.80
2019-01-18T03:33:34.110Z,29.00
2019-01-18T03:34:34.080Z,31.60
2019-01-18T03:35:34.071Z,27.60
2019-01-18T03:36:34.074Z,28.50
2019-01-18T03:37:34.048Z,27.50
2019-01-18T03:38:34.073Z,27.90
2019-01-18T03:39:34.030Z,23.30
2019-01-18T03:40:34.038Z,24.00
2019-01-18T03:41:34.018Z,29.30
2019-01-18T03:42:33.998Z,30.10
2019-01-18T03:43:34.010Z,23.00
2019-01-18T03:44:33.983Z,27.20
2019-01-18T03:45:33.981Z,23.80
2019-01-18T03:46:33.962Z,25.20
2019-01-18T03:47:33.952Z,25.00
2019-01-18T03:48:33.958Z,23.20
2019-01-18T03:49:33.938Z,29.40
2019-01-18T03:50:33.920Z,23.90
2019-01-18T03:51:33.906Z,25.10
2019-01-18T03:52:33.904Z,23.00
2019-01-18T03:53:33.906Z,26.30
2019-01-18T03:54:33.879Z,24.30
2019-01-18T03:55:33.863Z,22.20
2019-01-18T03:56:33.855Z,26.90
2019-01-18T03:57:33.844Z,23.30
2019-01-18T03:58:33.856Z,18.40
2019-01-18T03:59:33.839Z,22.40
2019-01-18T04:00:33.822Z,19.60
2019-01-18T04:01:33.802Z,23.90
2019-01-18T04:02:33.792Z,22.70
2019-01-18T04:03:33.797Z,23.70
2019-01-18T04:04:33.792Z,25.80
2019-01-18T04:05:33.761Z,22.30
2019-01-18T04:06:33.754Z,21.30
2019-01-18T04:07:33.737Z,23.30
2019-01-18T04:08:33.754Z,19.40
2019-01-18T04:09:33.734Z,21.70
2019-01-18T04:10:33.704Z,25.80
2019-01-18T04:11:33.698Z,24.70
2019-01-18T04:12:33.685Z,22.70
2019-01-18T04:13:33.720Z,22.90
2019-01-18T04:14:33.669Z,22.80
2019-01-18T04:15:33.657Z,23.70
2019-01-18T04:16:33.646Z,23.40
2019-01-18T04:17:33.635Z,19.30
2019-01-18T04:18:33.659Z,22.70
2019-01-18T04:19:33.611Z,23.00
2019-01-18T04:20:33.601Z,21.20
2019-01-18T04:21:33.625Z,22.70
2019-01-18T04:22:33.603Z,27.00
2019-01-18T04:23:33.598Z,21.70
2019-01-18T04:24:33.559Z,25.10
2019-01-18T04:25:33.547Z,23.40
2019-01-18T04:26:33.541Z,24.10
2019-01-18T04:27:33.544Z,23.20
2019-01-18T04:28:33.545Z,19.90
2019-01-18T04:29:33.508Z,23.30
2019-01-18T04:30:33.900Z,18.80
2019-01-18T04:31:33.508Z,23.10
2019-01-18T04:32:33.478Z,28.30
2019-01-18T04:33:33.471Z,20.50
2019-01-18T04:34:33.475Z,24.50
2019-01-18T04:35:33.447Z,23.80
2019-01-18T04:36:33.462Z,24.50
2019-01-18T04:37:33.434Z,23.00
2019-01-18T04:38:33.415Z,18.80
2019-01-18T04:39:33.449Z,24.70
2019-01-18T04:40:33.408Z,19.50
2019-01-18T04:41:33.387Z,22.70
2019-01-18T04:42:33.375Z,24.80
2019-01-18T04:43:33.362Z,24.20
2019-01-18T04:44:33.382Z,22.40
2019-01-18T04:45:33.381Z,20.30
2019-01-18T04:46:33.334Z,19.20
2019-01-18T04:47:33.322Z,21.90
2019-01-18T04:48:33.317Z,22.40
2019-01-18T04:49:33.359Z,22.10
2019-01-18T04:50:33.309Z,20.70
2019-01-18T04:51:33.281Z,20.90
2019-01-18T04:52:33.270Z,19.10
2019-01-18T04:53:33.254Z,22.00
2019-01-18T04:54:33.272Z,22.10
2019-01-18T04:55:33.260Z,22.40
2019-01-18T04:56:33.226Z,23.30
2019-01-18T04:57:33.214Z,21.70
2019-01-18T04:58:33.216Z,19.70
2019-01-18T04:59:33.191Z,22.70
2019-01-18T05:00:40.132Z,22.30
2019-01-18T05:01:34.195Z,21.60
2019-01-18T05:02:33.164Z,23.10
2019-01-18T05:03:33.169Z,23.80
2019-01-18T05:04:33.142Z,19.00
2019-01-18T05:05:33.131Z,23.90
2019-01-18T05:06:34.654Z,21.30
2019-01-18T05:07:33.113Z,22.60
2019-01-18T05:08:33.098Z,20.00
2019-01-18T05:09:33.088Z,24.30
2019-01-18T05:10:33.077Z,21.80
2019-01-18T05:11:33.109Z,23.10
2019-01-18T05:12:33.056Z,18.60
2019-01-18T05:13:33.054Z,20.80
2019-01-18T05:14:33.037Z,23.90
2019-01-18T05:15:33.026Z,19.60
2019-01-18T05:16:33.019Z,23.60
2019-01-18T05:17:33.032Z,21.60
2019-01-18T05:18:32.994Z,21.40
2019-01-18T05:19:32.982Z,25.20
2019-01-18T05:20:32.985Z,20.00
2019-01-18T05:21:32.965Z,20.30
2019-01-18T05:22:32.978Z,21.00
2019-01-18T05:23:32.945Z,19.80
2019-01-18T05:24:32.952Z,22.70
2019-01-18T05:25:32.922Z,20.10
2019-01-18T05:26:32.917Z,19.20
2019-01-18T05:27:32.933Z,20.20
2019-01-18T05:28:33.105Z,20.50
2019-01-18T05:29:32.926Z,21.20
2019-01-18T05:30:32.872Z,24.70
2019-01-18T05:31:32.909Z,18.40
2019-01-18T05:32:32.857Z,19.50
2019-01-18T05:33:32.865Z,20.50
2019-01-18T05:34:32.831Z,22.70
2019-01-18T05:35:32.823Z,21.00
2019-01-18T05:36:32.816Z,20.90
2019-01-18T05:37:32.811Z,22.00
2019-01-18T05:38:32.824Z,25.30
2019-01-18T05:39:32.779Z,20.20
2019-01-18T05:40:32.772Z,22.10
2019-01-18T05:41:32.762Z,23.80
2019-01-18T05:42:32.752Z,21.10
2019-01-18T05:43:32.762Z,23.20
2019-01-18T05:44:32.730Z,20.90
2019-01-18T05:45:32.716Z,23.00
2019-01-18T05:46:32.720Z,23.90
2019-01-18T05:47:32.702Z,23.60
2019-01-18T05:48:32.709Z,23.70
2019-01-18T05:49:32.680Z,20.40
2019-01-18T05:50:32.669Z,22.30
2019-01-18T05:51:32.655Z,20.80
2019-01-18T05:52:32.646Z,19.30
2019-01-18T05:53:32.631Z,22.30
2019-01-18T05:54:32.644Z,21.90
2019-01-18T05:55:32.723Z,24.40
2019-01-18T05:56:32.601Z,19.10
2019-01-18T05:57:32.589Z,20.80
2019-01-18T05:58:32.590Z,21.30
2019-01-18T05:59:32.592Z,22.10
2019-01-18T06:00:32.578Z,22.60
2019-01-18T06:01:32.548Z,23.40
2019-01-18T06:02:32.540Z,22.50
2019-01-18T06:03:32.532Z,23.80
2019-01-18T06:04:32.517Z,24.80
2019-01-18T06:05:32.527Z,21.30
2019-01-18T06:06:32.512Z,23.70
2019-01-18T06:07:32.484Z,24.90
2019-01-18T06:08:32.487Z,28.00
2019-01-18T06:09:32.461Z,25.50
2019-01-18T06:10:32.473Z,25.80
2019-01-18T06:11:32.443Z,24.80
2019-01-18T06:12:32.432Z,26.90
2019-01-18T06:13:32.422Z,27.80
2019-01-18T06:14:32.412Z,24.70
2019-01-18T06:15:32.421Z,26.60
2019-01-18T06:16:32.390Z,27.70
2019-01-18T06:17:32.484Z,27.80
2019-01-18T06:18:32.398Z,23.60
2019-01-18T06:19:32.374Z,27.50
2019-01-18T06:20:32.387Z,25.00
2019-01-18T06:21:32.338Z,27.00
2019-01-18T06:22:32.341Z,26.50
2019-01-18T06:23:32.340Z,29.80
2019-01-18T06:24:32.329Z,29.50
2019-01-18T06:25:32.337Z,27.40
2019-01-18T06:26:32.316Z,25.70
2019-01-18T06:27:32.282Z,28.70
2019-01-18T06:28:32.269Z,26.30
2019-01-18T06:29:32.252Z,25.70
2019-01-18T06:30:32.250Z,27.70
2019-01-18T06:31:32.272Z,27.50
2019-01-18T06:32:32.261Z,28.70
2019-01-18T06:33:32.384Z,29.00
2019-01-18T06:34:32.220Z,25.80
2019-01-18T06:35:32.212Z,26.10
2019-01-18T06:36:32.226Z,24.30
2019-01-18T06:37:32.174Z,24.60
2019-01-18T06:38:32.167Z,21.80
2019-01-18T06:39:32.175Z,22.70
2019-01-18T06:40:32.146Z,23.50
2019-01-18T06:41:32.138Z,25.00
2019-01-18T06:42:32.186Z,24.30
2019-01-18T06:43:32.110Z,24.50
2019-01-18T06:44:32.105Z,21.70
2019-01-18T06:45:32.091Z,23.70
2019-01-18T06:46:32.093Z,24.90
2019-01-18T06:47:32.126Z,25.40
2019-01-18T06:48:32.111Z,28.40
2019-01-18T06:49:32.055Z,22.50
2019-01-18T06:50:32.050Z,23.60
2019-01-18T06:51:32.074Z,27.90
2019-01-18T06:52:32.022Z,26.30
2019-01-18T06:53:32.006Z,24.90
2019-01-18T06:54:31.998Z,23.10
2019-01-18T06:55:32.030Z,25.40
2019-01-18T06:56:32.565Z,22.90
2019-01-18T06:57:31.970Z,25.20
2019-01-18T06:58:31.978Z,23.90
2019-01-18T06:59:31.939Z,25.70
2019-01-18T07:00:31.928Z,25.50
2019-01-18T07:01:31.924Z,22.70
2019-01-18T07:02:31.933Z,28.50
2019-01-18T07:03:31.948Z,25.00
2019-01-18T07:04:31.885Z,25.00
2019-01-18T07:05:31.948Z,22.70
2019-01-18T07:06:31.895Z,25.10
2019-01-18T07:07:31.850Z,26.70
2019-01-18T07:08:31.862Z,23.90
2019-01-18T07:09:31.842Z,26.70
2019-01-18T07:10:31.831Z,25.60
2019-01-18T07:11:31.836Z,23.10
2019-01-18T07:12:31.845Z,22.60
2019-01-18T07:13:31.800Z,22.70
2019-01-18T07:14:31.784Z,25.60
2019-01-18T07:15:31.773Z,22.60
2019-01-18T07:16:31.797Z,24.70
2019-01-18T07:17:31.757Z,23.50
2019-01-18T07:18:31.744Z,21.50
2019-01-18T07:19:31.730Z,25.10
2019-01-18T07:20:31.722Z,24.00
2019-01-18T07:21:31.750Z,21.10
2019-01-18T07:22:31.725Z,24.00
2019-01-18T07:23:31.687Z,22.20
2019-01-18T07:24:31.685Z,22.80
2019-01-18T07:25:31.683Z,23.80
2019-01-18T07:26:31.670Z,22.60
2019-01-18T07:28:40.430Z,22.50
2019-01-18T07:29:40.486Z,20.40
2019-01-18T07:30:40.432Z,21.80
2019-01-18T07:31:40.369Z,23.50
2019-01-18T07:32:40.424Z,23.40
2019-01-18T07:33:40.389Z,24.20
2019-01-18T07:34:40.385Z,18.50
2019-01-18T07:35:40.353Z,22.80
2019-01-18T07:36:40.313Z,22.40
2019-01-18T07:37:40.339Z,23.50
2019-01-18T07:38:40.355Z,23.00
2019-01-18T07:39:40.298Z,22.30
2019-01-18T07:40:40.339Z,21.90
2019-01-18T07:41:40.276Z,22.20
2019-01-18T07:42:40.271Z,25.20
2019-01-18T07:43:40.352Z,26.20
2019-01-18T07:44:40.225Z,27.10
2019-01-18T07:45:40.230Z,21.30
2019-01-18T07:46:40.202Z,25.60
2019-01-18T07:47:40.204Z,22.80
2019-01-18T07:48:40.207Z,22.70
2019-01-18T07:49:40.174Z,25.50
2019-01-18T07:50:40.164Z,23.90
2019-01-18T07:51:40.163Z,25.10
2019-01-18T07:52:40.149Z,23.20
2019-01-18T07:53:40.128Z,23.90
2019-01-18T07:54:40.142Z,22.50
2019-01-18T07:55:40.111Z,26.30
2019-01-18T07:56:40.100Z,27.10
2019-01-18T07:57:40.091Z,30.00
2019-01-18T07:58:40.082Z,23.10
2019-01-18T07:59:40.111Z,20.90
2019-01-18T08:00:40.072Z,22.90
2019-01-18T08:01:40.047Z,25.60
2019-01-18T08:02:40.037Z,27.80
2019-01-18T08:03:40.028Z,28.40
2019-01-18T08:04:40.018Z,23.80
2019-01-18T08:05:40.037Z,26.20
2019-01-18T08:06:39.995Z,25.50
2019-01-18T08:07:39.984Z,27.40
2019-01-18T08:08:39.983Z,22.90
2019-01-18T08:09:39.965Z,22.70
2019-01-18T08:10:39.995Z,22.60
2019-01-18T08:11:39.942Z,25.70
2019-01-18T08:12:39.931Z,23.00
2019-01-18T08:13:39.918Z,26.40
2019-01-18T08:14:39.920Z,26.20
2019-01-18T08:15:39.920Z,28.10
2019-01-18T08:16:39.889Z,28.50
2019-01-18T08:17:39.910Z,26.10
2019-01-18T08:18:39.870Z,40.40
2019-01-18T08:19:39.867Z,42.40
2019-01-18T08:20:39.871Z,40.40
2019-01-18T08:21:39.836Z,36.00
2019-01-18T08:22:39.827Z,35.50
2019-01-18T08:23:39.858Z,38.10
2019-01-18T08:24:39.809Z,45.40
2019-01-18T08:25:39.795Z,50.00
2019-01-18T08:26:39.818Z,46.90
2019-01-18T08:27:39.777Z,44.40
2019-01-18T08:28:39.786Z,37.20
2019-01-18T08:29:39.754Z,39.50
2019-01-18T08:30:39.742Z,39.00
2019-01-18T08:31:39.764Z,41.60
2019-01-18T08:32:39.733Z,38.90
2019-01-18T08:33:39.713Z,31.90
2019-01-18T08:34:39.701Z,32.60
2019-01-18T08:35:39.691Z,30.60
2019-01-18T08:36:39.731Z,28.00
2019-01-18T08:37:39.671Z,27.10
2019-01-18T08:38:39.663Z,27.50
2019-01-18T08:39:39.649Z,25.50
2019-01-18T08:40:39.642Z,24.70
2019-01-18T08:41:39.626Z,24.90
2019-01-18T08:42:39.642Z,30.50
2019-01-18T08:43:39.620Z,28.40
2019-01-18T08:44:39.603Z,26.30
2019-01-18T08:45:39.613Z,32.20
2019-01-18T08:46:39.578Z,29.50
2019-01-18T08:47:39.594Z,28.40
2019-01-18T08:48:39.556Z,27.60
2019-01-18T08:49:39.545Z,26.50
2019-01-18T08:50:39.542Z,26.40
2019-01-18T08:51:39.526Z,25.60
2019-01-18T08:52:39.535Z,27.20
2019-01-18T08:53:39.511Z,33.40
2019-01-18T08:54:39.493Z,38.00
2019-01-18T08:55:39.496Z,31.60
2019-01-18T08:56:39.472Z,30.90
2019-01-18T08:57:39.465Z,33.20
2019-01-18T08:58:39.469Z,29.20
2019-01-18T08:59:39.456Z,36.60
2019-01-18T09:00:39.430Z,33.80
2019-01-18T09:01:39.426Z,36.70
2019-01-18T09:02:39.409Z,32.50
2019-01-18T09:03:39.420Z,41.00
2019-01-18T09:04:39.405Z,37.50
2019-01-18T09:05:39.377Z,41.20
2019-01-18T09:06:39.371Z,34.90
2019-01-18T09:07:39.358Z,35.50
2019-01-18T09:08:39.391Z,36.20
2019-01-18T09:09:39.340Z,37.70
2019-01-18T09:10:39.326Z,39.80
2019-01-18T09:11:39.315Z,38.60
2019-01-18T09:12:39.308Z,38.10
2019-01-18T09:13:39.351Z,38.70
2019-01-18T09:14:39.291Z,41.10
2019-01-18T09:15:39.275Z,38.70
2019-01-18T09:16:39.265Z,36.10
2019-01-18T09:17:39.265Z,34.90
2019-01-18T09:18:39.241Z,33.60
2019-01-18T09:19:39.250Z,34.80
2019-01-18T09:20:39.226Z,31.80
2019-01-18T09:21:39.210Z,37.00
2019-01-18T09:22:39.220Z,40.10
2019-01-18T09:23:39.191Z,43.20
2019-01-18T09:24:39.209Z,37.60
2019-01-18T09:25:39.168Z,36.90
2019-01-18T09:26:39.173Z,40.40
2019-01-18T09:27:39.150Z,47.90
2019-01-18T09:28:39.139Z,36.70
2019-01-18T09:29:39.125Z,37.50
2019-01-18T09:30:39.139Z,37.20
2019-01-18T09:31:42.657Z,36.80
2019-01-18T09:32:39.096Z,39.60
2019-01-18T09:33:39.087Z,37.50
2019-01-18T09:34:39.071Z,39.40
2019-01-18T09:35:39.093Z,37.40
2019-01-18T09:36:39.055Z,39.00
2019-01-18T09:37:39.042Z,42.50
2019-01-18T09:38:39.032Z,38.80
2019-01-18T09:39:39.033Z,39.80
2019-01-18T09:40:39.045Z,45.50
2019-01-18T09:41:46.576Z,45.30
2019-01-18T09:42:39.053Z,49.40
2019-01-18T09:43:38.981Z,44.10
2019-01-18T09:44:39.013Z,42.10
2019-01-18T09:45:39.019Z,38.90
2019-01-18T09:46:38.975Z,45.30
2019-01-18T09:47:38.981Z,37.50
2019-01-18T09:48:38.976Z,39.60
2019-01-18T09:49:39.041Z,45.20
2019-01-18T09:50:38.906Z,43.60
2019-01-18T09:51:38.923Z,47.00
2019-01-18T09:52:38.888Z,47.20
2019-01-18T09:53:38.900Z,45.90
2019-01-18T09:54:38.863Z,40.00
2019-01-18T09:55:38.858Z,41.10
2019-01-18T09:56:46.557Z,42.50
2019-01-18T09:57:38.888Z,46.00
2019-01-18T09:58:38.888Z,43.10
2019-01-18T09:59:38.942Z,39.30
2019-01-18T10:00:38.816Z,43.60
2019-01-18T10:01:38.834Z,51.80
2019-01-18T10:02:38.796Z,44.70
2019-01-18T10:03:38.777Z,42.30
2019-01-18T10:04:38.779Z,39.10
2019-01-18T10:05:38.750Z,39.20
2019-01-18T10:06:38.747Z,38.80
2019-01-18T10:07:38.760Z,41.60
2019-01-18T10:08:38.738Z,40.90
2019-01-18T10:09:38.711Z,38.60
2019-01-18T10:10:38.702Z,35.60
2019-01-18T10:11:38.731Z,33.40
2019-01-18T10:12:38.724Z,33.20
2019-01-18T10:13:38.668Z,31.90
2019-01-18T10:14:38.660Z,31.60
2019-01-18T10:15:38.659Z,30.40
2019-01-18T10:16:38.634Z,31.80
2019-01-18T10:17:38.663Z,36.70
2019-01-18T10:18:38.621Z,32.00
2019-01-18T10:19:38.604Z,36.30
2019-01-18T10:20:38.600Z,34.80
2019-01-18T10:21:38.599Z,36.80
2019-01-18T10:22:38.577Z,33.90
2019-01-18T10:23:38.583Z,32.90
2019-01-18T10:24:38.558Z,31.00
2019-01-18T10:25:38.543Z,33.10
2019-01-18T10:26:38.544Z,32.40
2019-01-18T10:27:38.528Z,32.70
2019-01-18T10:28:38.540Z,33.30
2019-01-18T10:29:38.506Z,36.30
2019-01-18T10:30:38.523Z,34.30
2019-01-18T10:31:38.480Z,35.10
2019-01-18T10:32:38.469Z,29.60
2019-01-18T10:33:38.459Z,32.30
2019-01-18T10:34:38.470Z,31.30
2019-01-18T10:35:38.458Z,31.20
2019-01-18T10:36:38.432Z,36.20
2019-01-18T10:37:38.423Z,38.50
2019-01-18T10:38:46.048Z,34.90
2019-01-18T10:39:38.513Z,40.50
2019-01-18T10:40:38.452Z,33.20
2019-01-18T10:41:39.201Z,34.80
2019-01-18T10:42:38.374Z,36.40
2019-01-18T10:43:38.371Z,39.00
2019-01-18T10:44:38.368Z,38.60
2019-01-18T10:45:38.353Z,32.80
2019-01-18T10:46:38.325Z,36.10
2019-01-18T10:47:38.333Z,38.30
2019-01-18T10:48:38.309Z,37.40
2019-01-18T10:49:38.328Z,37.50
2019-01-18T10:50:38.572Z,37.70
2019-01-18T10:51:38.280Z,37.50
2019-01-18T10:52:38.274Z,36.40
2019-01-18T10:53:38.259Z,37.60
2019-01-18T10:54:38.283Z,33.60
2019-01-18T10:55:38.262Z,35.80
2019-01-18T10:56:38.253Z,33.70
2019-01-18T10:57:38.216Z,34.40
2019-01-18T10:58:38.201Z,32.60
2019-01-18T10:59:38.235Z,29.60
2019-01-18T11:00:38.202Z,32.20
2019-01-18T11:01:38.183Z,34.40
2019-01-18T11:02:38.171Z,28.10
2019-01-18T11:03:38.153Z,29.60
2019-01-18T11:04:38.141Z,27.80
2019-01-18T11:05:38.182Z,27.50
2019-01-18T11:06:38.127Z,27.60
2019-01-18T11:07:47.091Z,28.00
2019-01-18T11:08:38.190Z,29.20
2019-01-18T11:09:46.842Z,24.80
2019-01-18T11:10:38.178Z,32.10
2019-01-18T11:11:48.208Z,28.70
2019-01-18T11:12:38.197Z,30.70
2019-01-18T11:13:47.430Z,27.40
2019-01-18T11:14:38.151Z,27.20
2019-01-18T11:15:46.797Z,24.90
2019-01-18T11:16:38.150Z,29.00
2019-01-18T11:18:47.955Z,26.50
2019-01-18T11:19:55.870Z,27.10
2019-01-18T11:20:47.845Z,28.10
2019-01-18T11:21:56.722Z,28.10
2019-01-18T11:22:47.841Z,27.70
2019-01-18T11:23:56.546Z,27.50
2019-01-18T11:24:47.808Z,28.90
2019-01-18T11:25:55.386Z,28.80
2019-01-18T11:26:47.778Z,33.10
2019-01-18T11:27:57.704Z,30.10
2019-01-18T11:28:47.808Z,28.40
2019-01-18T11:29:56.530Z,29.40
2019-01-18T11:30:47.796Z,29.10
2019-01-18T11:33:00.212Z,29.10
2019-01-18T11:34:07.715Z,31.70
2019-01-18T11:35:00.226Z,30.50
2019-01-18T11:36:09.066Z,33.00
2019-01-18T11:37:00.133Z,33.40
2019-01-18T11:38:08.909Z,32.40
2019-01-18T11:39:00.047Z,31.20
2019-01-18T11:40:07.637Z,29.80
2019-01-18T11:41:00.022Z,30.60
2019-01-18T11:42:07.596Z,35.00
2019-01-18T11:43:00.068Z,35.60
2019-01-18T11:44:07.713Z,33.10
2019-01-18T11:45:00.016Z,36.90
2019-01-18T11:47:18.701Z,33.90
2019-01-18T11:48:27.255Z,43.30
2019-01-18T11:49:18.647Z,36.30
2019-01-18T11:50:27.240Z,41.50
2019-01-18T11:51:18.661Z,35.20
2019-01-18T11:52:27.606Z,41.00
2019-01-18T11:53:18.572Z,40.80
2019-01-18T11:54:27.856Z,43.20
2019-01-18T11:55:18.583Z,37.90
2019-01-18T11:56:26.510Z,43.50
2019-01-18T11:57:18.604Z,43.40
2019-01-18T11:59:50.561Z,38.70
2019-01-18T12:02:07.997Z,36.80
2019-01-18T12:03:16.673Z,39.30
2019-01-18T12:04:07.884Z,41.10
2019-01-18T12:06:17.700Z,43.80
2019-01-18T12:07:25.486Z,43.80
2019-01-18T12:08:17.617Z,39.00
2019-01-18T12:09:26.173Z,38.80
2019-01-18T12:10:17.615Z,46.10
2019-01-18T12:12:36.927Z,37.70
2019-01-18T12:14:57.855Z,41.90
2019-01-18T12:17:11.476Z,40.30
2019-01-18T12:18:20.058Z,36.50
2019-01-18T12:19:11.519Z,36.40
2019-01-18T12:21:43.012Z,32.40
2019-01-18T12:22:43.491Z,38.00
2019-01-18T12:23:42.869Z,40.10
2019-01-18T12:24:53.594Z,39.80
2019-01-18T12:25:42.919Z,35.50
2019-01-18T12:26:54.624Z,33.60
2019-01-18T12:27:42.871Z,34.60
2019-01-18T12:28:53.299Z,33.20
2019-01-18T12:29:42.901Z,37.10
2019-01-18T12:30:51.474Z,32.20
2019-01-18T12:31:42.821Z,38.30
2019-01-18T12:34:28.813Z,36.80
2019-01-18T12:35:39.259Z,35.70
2019-01-18T12:36:28.757Z,30.10
2019-01-18T12:38:49.752Z,33.90
2019-01-18T12:39:57.255Z,37.90
2019-01-18T12:40:49.594Z,33.90
2019-01-18T12:41:50.466Z,36.50
2019-01-18T12:42:49.489Z,36.20
2019-01-18T12:43:49.510Z,37.80
2019-01-18T12:44:49.462Z,35.80
2019-01-18T12:45:49.508Z,34.00
2019-01-18T12:46:49.442Z,32.20
2019-01-18T12:47:49.447Z,30.50
2019-01-18T12:48:49.425Z,36.30
2019-01-18T12:49:49.406Z,36.40
2019-01-18T12:50:49.419Z,35.50
2019-01-18T12:51:49.410Z,32.10
2019-01-18T12:52:49.374Z,31.10
2019-01-18T12:53:49.369Z,35.60
2019-01-18T12:54:49.361Z,31.70
2019-01-18T12:55:49.418Z,31.10
2019-01-18T12:56:49.338Z,40.50
2019-01-18T12:57:49.325Z,35.80
2019-01-18T12:58:49.313Z,36.60
2019-01-18T12:59:49.301Z,38.10
2019-01-18T13:00:49.352Z,36.90
2019-01-18T13:01:49.339Z,36.40
2019-01-18T13:02:49.273Z,40.60
2019-01-18T13:03:49.265Z,42.80
2019-01-18T13:04:49.246Z,45.10
2019-01-18T13:05:49.243Z,43.40
2019-01-18T13:06:49.271Z,41.70
2019-01-18T13:07:49.218Z,38.30
2019-01-18T13:08:49.205Z,48.20
2019-01-18T13:09:49.192Z,44.90
2019-01-18T13:10:49.182Z,47.80
2019-01-18T13:11:49.190Z,43.70
2019-01-18T13:12:49.194Z,51.70
2019-01-18T13:13:49.148Z,47.50
2019-01-18T13:14:49.137Z,45.30